Day Rural, Kentucky
Current Conditions -  °F | °C
As of 9:35 PM on Wednesday 22 Oct 2014 (Local Time) from KLNP Reporting Station
Overcast Overcast  
Wind Chill: 40°   Ceiling: 400
Heat Index: 43°   Visibility: 10mi
Dew Point: 43°   Wind: 5mph
Humidity: 100%   Direction: 330°NNW
Pressure: 30.22"   Gusts: NA
Location:  37.1283°N, 82.8498°W
Report Text: KLNP 230135Z AUTO 33004KT 10SM OVC004 06/06 A3022 RMK AO2
Loading
Personal Weather Stations






























Interactive Weather Map New forecast layout! Learn more

10-Day Weather Forecast

Advertisements
Track Severe Weather on mobile